sensor_id;sensor_type;location;lat;lon;timestamp;temperature;humidity
17697;DHT22;8967;47.984;7.842;2023-02-18T00:00:30;12.40;99.90
17697;DHT22;8967;47.984;7.842;2023-02-18T00:02:56;12.40;99.90
17697;DHT22;8967;47.984;7.842;2023-02-18T00:05:25;12.40;99.90
17697;DHT22;8967;47.984;7.842;2023-02-18T00:07:52;12.40;99.90
17697;DHT22;8967;47.984;7.842;2023-02-18T00:10:19;12.40;99.90
17697;DHT22;8967;47.984;7.842;2023-02-18T00:12:46;12.40;99.90
17697;DHT22;8967;47.984;7.842;2023-02-18T00:15:13;12.50;99.90
17697;DHT22;8967;47.984;7.842;2023-02-18T00:17:39;12.50;99.90
17697;DHT22;8967;47.984;7.842;2023-02-18T00:20:09;12.40;99.90
17697;DHT22;8967;47.984;7.842;2023-02-18T00:22:38;12.40;99.90
17697;DHT22;8967;47.984;7.842;2023-02-18T00:25:05;12.40;99.90
17697;DHT22;8967;47.984;7.842;2023-02-18T00:27:34;12.40;99.90
17697;DHT22;8967;47.984;7.842;2023-02-18T00:30:02;12.40;99.90
17697;DHT22;8967;47.984;7.842;2023-02-18T00:32:33;12.40;99.90
17697;DHT22;8967;47.984;7.842;2023-02-18T00:35:00;12.40;99.90
17697;DHT22;8967;47.984;7.842;2023-02-18T00:37:28;12.40;99.90
17697;DHT22;8967;47.984;7.842;2023-02-18T00:39:59;12.40;99.90
17697;DHT22;8967;47.984;7.842;2023-02-18T00:42:27;12.40;99.90
17697;DHT22;8967;47.984;7.842;2023-02-18T00:44:54;12.40;99.90
17697;DHT22;8967;47.984;7.842;2023-02-18T00:47:21;12.40;99.90
17697;DHT22;8967;47.984;7.842;2023-02-18T00:49:48;12.40;99.90
17697;DHT22;8967;47.984;7.842;2023-02-18T00:52:15;12.40;99.90
17697;DHT22;8967;47.984;7.842;2023-02-18T00:54:44;12.40;99.90
17697;DHT22;8967;47.984;7.842;2023-02-18T00:57:13;12.40;99.90
17697;DHT22;8967;47.984;7.842;2023-02-18T00:59:40;12.40;99.90
17697;DHT22;8967;47.984;7.842;2023-02-18T01:02:09;12.40;99.90
17697;DHT22;8967;47.984;7.842;2023-02-18T01:04:36;12.40;99.90
17697;DHT22;8967;47.984;7.842;2023-02-18T01:07:03;12.40;99.90
17697;DHT22;8967;47.984;7.842;2023-02-18T01:09:29;12.40;99.90
17697;DHT22;8967;47.984;7.842;2023-02-18T01:11:56;12.30;99.90
17697;DHT22;8967;47.984;7.842;2023-02-18T01:14:27;12.30;99.90
17697;DHT22;8967;47.984;7.842;2023-02-18T01:16:56;12.30;99.90
17697;DHT22;8967;47.984;7.842;2023-02-18T01:19:23;12.30;99.90
17697;DHT22;8967;47.984;7.842;2023-02-18T01:21:50;12.20;99.90
17697;DHT22;8967;47.984;7.842;2023-02-18T01:24:17;12.20;99.90
17697;DHT22;8967;47.984;7.842;2023-02-18T01:26:44;12.20;99.90
17697;DHT22;8967;47.984;7.842;2023-02-18T01:29:11;12.20;99.90
17697;DHT22;8967;47.984;7.842;2023-02-18T01:31:40;12.20;99.90
17697;DHT22;8967;47.984;7.842;2023-02-18T01:34:07;12.20;99.90
17697;DHT22;8967;47.984;7.842;2023-02-18T01:36:37;12.10;99.90
17697;DHT22;8967;47.984;7.842;2023-02-18T01:39:04;12.10;99.90
17697;DHT22;8967;47.984;7.842;2023-02-18T01:41:31;12.10;99.90
17697;DHT22;8967;47.984;7.842;2023-02-18T01:44:14;12.10;99.90
17697;DHT22;8967;47.984;7.842;2023-02-18T01:46:45;12.10;99.90
17697;DHT22;8967;47.984;7.842;2023-02-18T01:49:17;12.10;99.90
17697;DHT22;8967;47.984;7.842;2023-02-18T01:51:48;12.10;99.90
17697;DHT22;8967;47.984;7.842;2023-02-18T01:54:18;12.10;99.90
17697;DHT22;8967;47.984;7.842;2023-02-18T01:56:50;12.10;99.90
17697;DHT22;8967;47.984;7.842;2023-02-18T01:59:22;12.10;99.90
17697;DHT22;8967;47.984;7.842;2023-02-18T02:01:50;12.10;99.90
17697;DHT22;8967;47.984;7.842;2023-02-18T02:04:18;12.10;99.90
17697;DHT22;8967;47.984;7.842;2023-02-18T02:06:46;12.10;99.90
17697;DHT22;8967;47.984;7.842;2023-02-18T02:09:15;12.10;99.90
17697;DHT22;8967;47.984;7.842;2023-02-18T02:12:20;12.10;99.90
17697;DHT22;8967;47.984;7.842;2023-02-18T02:15:07;12.10;99.90
17697;DHT22;8967;47.984;7.842;2023-02-18T02:18:03;12.10;99.90
17697;DHT22;8967;47.984;7.842;2023-02-18T02:26:58;12.20;99.90
17697;DHT22;8967;47.984;7.842;2023-02-18T02:29:56;12.20;99.90
17697;DHT22;8967;47.984;7.842;2023-02-18T02:35:36;12.20;99.90
17697;DHT22;8967;47.984;7.842;2023-02-18T02:38:07;12.20;99.90
17697;DHT22;8967;47.984;7.842;2023-02-18T02:40:43;12.20;99.90
17697;DHT22;8967;47.984;7.842;2023-02-18T02:43:18;12.20;99.90
17697;DHT22;8967;47.984;7.842;2023-02-18T02:45:53;12.20;99.90
17697;DHT22;8967;47.984;7.842;2023-02-18T02:48:30;12.20;99.90
17697;DHT22;8967;47.984;7.842;2023-02-18T02:51:06;12.20;99.90
17697;DHT22;8967;47.984;7.842;2023-02-18T02:53:36;12.20;99.90
17697;DHT22;8967;47.984;7.842;2023-02-18T02:56:03;12.30;99.90
17697;DHT22;8967;47.984;7.842;2023-02-18T02:58:30;12.30;99.90
17697;DHT22;8967;47.984;7.842;2023-02-18T03:01:08;12.30;99.90
17697;DHT22;8967;47.984;7.842;2023-02-18T03:04:02;12.30;99.90
17697;DHT22;8967;47.984;7.842;2023-02-18T03:09:46;12.30;99.90
17697;DHT22;8967;47.984;7.842;2023-02-18T03:12:24;12.30;99.90
17697;DHT22;8967;47.984;7.842;2023-02-18T03:14:59;12.30;99.90
17697;DHT22;8967;47.984;7.842;2023-02-18T03:17:35;12.30;99.90
17697;DHT22;8967;47.984;7.842;2023-02-18T03:20:08;12.40;99.90
17697;DHT22;8967;47.984;7.842;2023-02-18T03:22:39;12.40;99.90
17697;DHT22;8967;47.984;7.842;2023-02-18T03:25:09;12.40;99.90
17697;DHT22;8967;47.984;7.842;2023-02-18T03:27:42;12.40;99.90
17697;DHT22;8967;47.984;7.842;2023-02-18T03:30:15;12.40;99.90
17697;DHT22;8967;47.984;7.842;2023-02-18T03:32:43;12.40;99.90
17697;DHT22;8967;47.984;7.842;2023-02-18T03:35:14;12.40;99.90
17697;DHT22;8967;47.984;7.842;2023-02-18T03:37:45;12.40;99.90
17697;DHT22;8967;47.984;7.842;2023-02-18T03:40:18;12.40;99.90
17697;DHT22;8967;47.984;7.842;2023-02-18T03:42:47;12.40;99.90
17697;DHT22;8967;47.984;7.842;2023-02-18T03:45:14;12.40;99.90
17697;DHT22;8967;47.984;7.842;2023-02-18T03:47:42;12.40;99.90
17697;DHT22;8967;47.984;7.842;2023-02-18T03:50:09;12.40;99.90
17697;DHT22;8967;47.984;7.842;2023-02-18T03:52:38;12.40;99.90
17697;DHT22;8967;47.984;7.842;2023-02-18T03:55:06;12.40;99.90
17697;DHT22;8967;47.984;7.842;2023-02-18T03:57:35;12.40;99.90
17697;DHT22;8967;47.984;7.842;2023-02-18T04:00:05;12.40;99.90
17697;DHT22;8967;47.984;7.842;2023-02-18T04:02:39;12.40;99.90
17697;DHT22;8967;47.984;7.842;2023-02-18T04:05:06;12.40;99.90
17697;DHT22;8967;47.984;7.842;2023-02-18T04:07:33;12.40;99.90
17697;DHT22;8967;47.984;7.842;2023-02-18T04:10:02;12.40;99.90
17697;DHT22;8967;47.984;7.842;2023-02-18T04:12:29;12.40;99.90
17697;DHT22;8967;47.984;7.842;2023-02-18T04:14:57;12.40;99.90
17697;DHT22;8967;47.984;7.842;2023-02-18T04:17:24;12.40;99.90
17697;DHT22;8967;47.984;7.842;2023-02-18T04:19:51;12.50;99.90
17697;DHT22;8967;47.984;7.842;2023-02-18T04:22:18;12.40;99.90
17697;DHT22;8967;47.984;7.842;2023-02-18T04:24:44;12.50;99.90
17697;DHT22;8967;47.984;7.842;2023-02-18T04:27:13;12.50;99.90
17697;DHT22;8967;47.984;7.842;2023-02-18T04:29:40;12.50;99.90
17697;DHT22;8967;47.984;7.842;2023-02-18T04:32:09;12.50;99.90
17697;DHT22;8967;47.984;7.842;2023-02-18T04:34:35;12.50;99.90
17697;DHT22;8967;47.984;7.842;2023-02-18T04:37:02;12.50;99.90
17697;DHT22;8967;47.984;7.842;2023-02-18T04:39:29;12.50;99.90
17697;DHT22;8967;47.984;7.842;2023-02-18T04:41:56;12.50;99.90
17697;DHT22;8967;47.984;7.842;2023-02-18T04:44:25;12.50;99.90
17697;DHT22;8967;47.984;7.842;2023-02-18T04:46:52;12.50;99.90
17697;DHT22;8967;47.984;7.842;2023-02-18T04:49:20;12.50;99.90
17697;DHT22;8967;47.984;7.842;2023-02-18T04:51:47;12.50;99.90
17697;DHT22;8967;47.984;7.842;2023-02-18T04:54:16;12.50;99.90
17697;DHT22;8967;47.984;7.842;2023-02-18T04:56:43;12.50;99.90
17697;DHT22;8967;47.984;7.842;2023-02-18T04:59:13;12.50;99.90
17697;DHT22;8967;47.984;7.842;2023-02-18T05:01:42;12.50;99.90
17697;DHT22;8967;47.984;7.842;2023-02-18T05:04:09;12.50;99.90
17697;DHT22;8967;47.984;7.842;2023-02-18T05:06:37;12.50;99.90
17697;DHT22;8967;47.984;7.842;2023-02-18T05:09:05;12.50;99.90
17697;DHT22;8967;47.984;7.842;2023-02-18T05:11:32;12.50;99.90
17697;DHT22;8967;47.984;7.842;2023-02-18T05:13:58;12.50;99.90
17697;DHT22;8967;47.984;7.842;2023-02-18T05:16:25;12.50;99.90
17697;DHT22;8967;47.984;7.842;2023-02-18T05:18:52;12.50;99.90
17697;DHT22;8967;47.984;7.842;2023-02-18T05:21:19;12.50;99.90
17697;DHT22;8967;47.984;7.842;2023-02-18T05:23:47;12.50;99.90
17697;DHT22;8967;47.984;7.842;2023-02-18T05:26:14;12.50;99.90
17697;DHT22;8967;47.984;7.842;2023-02-18T05:28:43;12.50;99.90
17697;DHT22;8967;47.984;7.842;2023-02-18T05:31:10;12.50;99.90
17697;DHT22;8967;47.984;7.842;2023-02-18T05:33:37;12.50;99.90
17697;DHT22;8967;47.984;7.842;2023-02-18T05:36:04;12.50;99.90
17697;DHT22;8967;47.984;7.842;2023-02-18T05:38:34;12.50;99.90
17697;DHT22;8967;47.984;7.842;2023-02-18T05:41:02;12.50;99.90
17697;DHT22;8967;47.984;7.842;2023-02-18T05:43:29;12.50;99.90
17697;DHT22;8967;47.984;7.842;2023-02-18T05:46:18;12.50;99.90
17697;DHT22;8967;47.984;7.842;2023-02-18T05:48:45;12.40;99.90
17697;DHT22;8967;47.984;7.842;2023-02-18T05:51:12;12.40;99.90
17697;DHT22;8967;47.984;7.842;2023-02-18T05:53:39;12.40;99.90
17697;DHT22;8967;47.984;7.842;2023-02-18T05:56:07;12.40;99.90
17697;DHT22;8967;47.984;7.842;2023-02-18T05:58:34;12.40;99.90
17697;DHT22;8967;47.984;7.842;2023-02-18T06:01:01;12.40;99.90
17697;DHT22;8967;47.984;7.842;2023-02-18T06:03:28;12.30;99.90
17697;DHT22;8967;47.984;7.842;2023-02-18T06:05:56;12.30;99.90
17697;DHT22;8967;47.984;7.842;2023-02-18T06:08:23;12.30;99.90
17697;DHT22;8967;47.984;7.842;2023-02-18T06:10:49;12.30;99.90
17697;DHT22;8967;47.984;7.842;2023-02-18T06:13:18;12.30;99.90
17697;DHT22;8967;47.984;7.842;2023-02-18T06:15:45;12.30;99.90
17697;DHT22;8967;47.984;7.842;2023-02-18T06:18:12;12.30;99.90
17697;DHT22;8967;47.984;7.842;2023-02-18T06:20:39;12.30;99.90
17697;DHT22;8967;47.984;7.842;2023-02-18T06:23:06;12.30;99.90
17697;DHT22;8967;47.984;7.842;2023-02-18T06:25:33;12.30;99.90
17697;DHT22;8967;47.984;7.842;2023-02-18T06:28:00;12.30;99.90
17697;DHT22;8967;47.984;7.842;2023-02-18T06:30:28;12.30;99.90
17697;DHT22;8967;47.984;7.842;2023-02-18T06:32:55;12.30;99.90
17697;DHT22;8967;47.984;7.842;2023-02-18T06:35:22;12.30;99.90
17697;DHT22;8967;47.984;7.842;2023-02-18T06:37:49;12.30;99.90
17697;DHT22;8967;47.984;7.842;2023-02-18T06:40:16;12.30;99.90
17697;DHT22;8967;47.984;7.842;2023-02-18T06:42:43;12.30;99.90
17697;DHT22;8967;47.984;7.842;2023-02-18T06:45:10;12.40;99.90
17697;DHT22;8967;47.984;7.842;2023-02-18T06:47:41;12.40;99.90
17697;DHT22;8967;47.984;7.842;2023-02-18T06:50:08;12.40;99.90
17697;DHT22;8967;47.984;7.842;2023-02-18T06:52:35;12.40;99.90
17697;DHT22;8967;47.984;7.842;2023-02-18T06:55:03;12.40;99.90
17697;DHT22;8967;47.984;7.842;2023-02-18T06:57:30;12.40;99.90
17697;DHT22;8967;47.984;7.842;2023-02-18T06:59:57;12.40;99.90
17697;DHT22;8967;47.984;7.842;2023-02-18T07:02:24;12.40;99.90
17697;DHT22;8967;47.984;7.842;2023-02-18T07:04:52;12.40;99.90
17697;DHT22;8967;47.984;7.842;2023-02-18T07:07:19;12.50;99.90
17697;DHT22;8967;47.984;7.842;2023-02-18T07:09:48;12.50;99.90
17697;DHT22;8967;47.984;7.842;2023-02-18T07:12:15;12.50;99.90
17697;DHT22;8967;47.984;7.842;2023-02-18T07:14:42;12.50;99.90
17697;DHT22;8967;47.984;7.842;2023-02-18T07:17:09;12.50;99.90
17697;DHT22;8967;47.984;7.842;2023-02-18T07:19:36;12.50;99.90
17697;DHT22;8967;47.984;7.842;2023-02-18T07:22:04;12.60;99.90
17697;DHT22;8967;47.984;7.842;2023-02-18T07:24:31;12.60;99.90
17697;DHT22;8967;47.984;7.842;2023-02-18T07:26:58;12.60;99.90
17697;DHT22;8967;47.984;7.842;2023-02-18T07:29:25;12.60;99.90
17697;DHT22;8967;47.984;7.842;2023-02-18T07:31:52;12.70;99.90
17697;DHT22;8967;47.984;7.842;2023-02-18T07:34:19;12.70;99.90
17697;DHT22;8967;47.984;7.842;2023-02-18T07:36:46;12.70;99.90
17697;DHT22;8967;47.984;7.842;2023-02-18T07:39:15;12.70;99.90
17697;DHT22;8967;47.984;7.842;2023-02-18T07:41:47;12.70;99.90
17697;DHT22;8967;47.984;7.842;2023-02-18T07:44:15;12.80;99.90
17697;DHT22;8967;47.984;7.842;2023-02-18T07:46:42;12.80;99.90
17697;DHT22;8967;47.984;7.842;2023-02-18T07:49:09;12.80;99.90
17697;DHT22;8967;47.984;7.842;2023-02-18T07:51:36;12.80;99.90
17697;DHT22;8967;47.984;7.842;2023-02-18T07:54:05;12.80;99.90
17697;DHT22;8967;47.984;7.842;2023-02-18T07:56:33;12.80;99.90
17697;DHT22;8967;47.984;7.842;2023-02-18T07:59:00;12.80;99.90
17697;DHT22;8967;47.984;7.842;2023-02-18T08:01:27;12.90;99.90
17697;DHT22;8967;47.984;7.842;2023-02-18T08:03:54;12.90;99.90
17697;DHT22;8967;47.984;7.842;2023-02-18T08:06:25;12.90;99.90
17697;DHT22;8967;47.984;7.842;2023-02-18T08:08:55;12.90;99.90
17697;DHT22;8967;47.984;7.842;2023-02-18T08:11:22;12.90;99.90
17697;DHT22;8967;47.984;7.842;2023-02-18T08:13:51;12.90;99.90
17697;DHT22;8967;47.984;7.842;2023-02-18T08:16:19;12.90;99.90
17697;DHT22;8967;47.984;7.842;2023-02-18T08:18:46;12.90;99.90
17697;DHT22;8967;47.984;7.842;2023-02-18T08:21:14;13.00;99.90
17697;DHT22;8967;47.984;7.842;2023-02-18T08:23:44;13.00;99.90
17697;DHT22;8967;47.984;7.842;2023-02-18T08:26:11;13.00;99.90
17697;DHT22;8967;47.984;7.842;2023-02-18T08:28:40;13.00;99.90
17697;DHT22;8967;47.984;7.842;2023-02-18T08:31:15;13.00;99.90
17697;DHT22;8967;47.984;7.842;2023-02-18T08:33:42;13.00;99.90
17697;DHT22;8967;47.984;7.842;2023-02-18T08:36:09;13.00;99.90
17697;DHT22;8967;47.984;7.842;2023-02-18T08:38:38;13.00;99.90
17697;DHT22;8967;47.984;7.842;2023-02-18T08:41:06;13.00;99.90
17697;DHT22;8967;47.984;7.842;2023-02-18T08:43:34;13.10;99.90
17697;DHT22;8967;47.984;7.842;2023-02-18T08:46:01;13.10;99.90
17697;DHT22;8967;47.984;7.842;2023-02-18T08:48:30;13.10;99.90
17697;DHT22;8967;47.984;7.842;2023-02-18T08:50:57;13.20;99.90
17697;DHT22;8967;47.984;7.842;2023-02-18T08:53:25;13.20;99.90
17697;DHT22;8967;47.984;7.842;2023-02-18T08:55:54;13.20;99.90
17697;DHT22;8967;47.984;7.842;2023-02-18T08:58:20;13.30;99.90
17697;DHT22;8967;47.984;7.842;2023-02-18T09:00:47;13.30;99.90
17697;DHT22;8967;47.984;7.842;2023-02-18T09:03:14;13.30;99.90
17697;DHT22;8967;47.984;7.842;2023-02-18T09:05:45;13.40;99.90
17697;DHT22;8967;47.984;7.842;2023-02-18T09:08:12;13.40;99.90
17697;DHT22;8967;47.984;7.842;2023-02-18T09:10:39;13.40;99.90
17697;DHT22;8967;47.984;7.842;2023-02-18T09:13:06;13.40;99.90
17697;DHT22;8967;47.984;7.842;2023-02-18T09:15:35;13.40;99.90
17697;DHT22;8967;47.984;7.842;2023-02-18T09:18:02;13.50;99.90
17697;DHT22;8967;47.984;7.842;2023-02-18T09:20:29;13.50;99.90
17697;DHT22;8967;47.984;7.842;2023-02-18T09:22:57;13.50;99.90
17697;DHT22;8967;47.984;7.842;2023-02-18T09:25:25;13.60;99.90
17697;DHT22;8967;47.984;7.842;2023-02-18T09:27:52;13.60;99.90
17697;DHT22;8967;47.984;7.842;2023-02-18T09:30:19;13.60;99.90
17697;DHT22;8967;47.984;7.842;2023-02-18T09:32:46;13.70;99.90
17697;DHT22;8967;47.984;7.842;2023-02-18T09:35:12;13.70;99.90
17697;DHT22;8967;47.984;7.842;2023-02-18T09:37:39;13.70;99.90
17697;DHT22;8967;47.984;7.842;2023-02-18T09:40:20;13.70;99.90
17697;DHT22;8967;47.984;7.842;2023-02-18T09:42:49;13.80;99.90
17697;DHT22;8967;47.984;7.842;2023-02-18T09:45:16;13.70;99.90
17697;DHT22;8967;47.984;7.842;2023-02-18T09:47:44;13.70;99.90
17697;DHT22;8967;47.984;7.842;2023-02-18T09:50:15;13.80;99.90
17697;DHT22;8967;47.984;7.842;2023-02-18T09:52:43;13.80;99.90
17697;DHT22;8967;47.984;7.842;2023-02-18T09:55:20;13.80;99.90
17697;DHT22;8967;47.984;7.842;2023-02-18T09:57:50;13.90;99.90
17697;DHT22;8967;47.984;7.842;2023-02-18T10:00:21;13.90;99.90
17697;DHT22;8967;47.984;7.842;2023-02-18T10:02:53;13.90;99.90
17697;DHT22;8967;47.984;7.842;2023-02-18T10:05:25;13.90;99.90
17697;DHT22;8967;47.984;7.842;2023-02-18T10:07:57;13.90;99.90
17697;DHT22;8967;47.984;7.842;2023-02-18T10:10:34;14.00;99.90
17697;DHT22;8967;47.984;7.842;2023-02-18T10:13:03;14.00;99.90
17697;DHT22;8967;47.984;7.842;2023-02-18T10:15:32;14.00;99.90
17697;DHT22;8967;47.984;7.842;2023-02-18T10:17:59;14.10;99.90
17697;DHT22;8967;47.984;7.842;2023-02-18T10:20:29;14.10;99.90
17697;DHT22;8967;47.984;7.842;2023-02-18T10:22:59;14.20;99.90
17697;DHT22;8967;47.984;7.842;2023-02-18T10:25:28;14.20;99.90
17697;DHT22;8967;47.984;7.842;2023-02-18T10:27:57;14.30;99.90
17697;DHT22;8967;47.984;7.842;2023-02-18T10:30:31;14.30;99.90
17697;DHT22;8967;47.984;7.842;2023-02-18T10:33:06;14.40;99.90
17697;DHT22;8967;47.984;7.842;2023-02-18T10:35:41;14.50;99.90
17697;DHT22;8967;47.984;7.842;2023-02-18T10:38:19;14.50;99.90
17697;DHT22;8967;47.984;7.842;2023-02-18T10:40:55;14.60;99.90
17697;DHT22;8967;47.984;7.842;2023-02-18T10:43:32;14.60;99.90
17697;DHT22;8967;47.984;7.842;2023-02-18T10:46:06;14.60;99.90
17697;DHT22;8967;47.984;7.842;2023-02-18T10:48:47;14.70;99.90
17697;DHT22;8967;47.984;7.842;2023-02-18T10:51:20;14.70;99.90
17697;DHT22;8967;47.984;7.842;2023-02-18T10:53:49;14.80;99.90
17697;DHT22;8967;47.984;7.842;2023-02-18T10:56:34;14.80;99.90
17697;DHT22;8967;47.984;7.842;2023-02-18T10:59:05;14.80;99.90
17697;DHT22;8967;47.984;7.842;2023-02-18T11:01:35;14.90;99.90
17697;DHT22;8967;47.984;7.842;2023-02-18T11:04:12;14.90;99.90
17697;DHT22;8967;47.984;7.842;2023-02-18T11:06:41;14.90;99.90
17697;DHT22;8967;47.984;7.842;2023-02-18T11:09:27;14.90;99.50
17697;DHT22;8967;47.984;7.842;2023-02-18T11:12:02;14.90;99.40
17697;DHT22;8967;47.984;7.842;2023-02-18T11:14:42;15.00;98.70
17697;DHT22;8967;47.984;7.842;2023-02-18T11:17:17;15.10;98.90
17697;DHT22;8967;47.984;7.842;2023-02-18T11:19:51;15.10;98.30
17697;DHT22;8967;47.984;7.842;2023-02-18T11:22:23;15.10;98.30
17697;DHT22;8967;47.984;7.842;2023-02-18T11:24:54;15.10;97.80
17697;DHT22;8967;47.984;7.842;2023-02-18T11:27:25;15.10;97.80
17697;DHT22;8967;47.984;7.842;2023-02-18T11:29:56;15.10;97.90
17697;DHT22;8967;47.984;7.842;2023-02-18T11:32:26;15.10;98.00
17697;DHT22;8967;47.984;7.842;2023-02-18T11:34:54;15.20;97.60
17697;DHT22;8967;47.984;7.842;2023-02-18T11:37:23;15.20;97.60
17697;DHT22;8967;47.984;7.842;2023-02-18T11:39:53;15.20;97.50
17697;DHT22;8967;47.984;7.842;2023-02-18T11:42:23;15.20;97.60
17697;DHT22;8967;47.984;7.842;2023-02-18T11:44:53;15.20;97.50
17697;DHT22;8967;47.984;7.842;2023-02-18T11:47:26;15.30;97.10
17697;DHT22;8967;47.984;7.842;2023-02-18T11:52:50;15.30;96.50
17697;DHT22;8967;47.984;7.842;2023-02-18T11:55:22;15.30;96.40
17697;DHT22;8967;47.984;7.842;2023-02-18T11:57:55;15.30;96.40
17697;DHT22;8967;47.984;7.842;2023-02-18T12:00:34;15.30;96.20
17697;DHT22;8967;47.984;7.842;2023-02-18T12:03:12;15.30;96.40
17697;DHT22;8967;47.984;7.842;2023-02-18T12:05:44;15.20;96.50
17697;DHT22;8967;47.984;7.842;2023-02-18T12:08:14;15.30;96.20
17697;DHT22;8967;47.984;7.842;2023-02-18T12:10:47;15.30;96.20
17697;DHT22;8967;47.984;7.842;2023-02-18T12:13:23;15.30;96.30
17697;DHT22;8967;47.984;7.842;2023-02-18T12:15:57;15.30;96.10
17697;DHT22;8967;47.984;7.842;2023-02-18T12:18:49;15.20;96.10
17697;DHT22;8967;47.984;7.842;2023-02-18T12:21:29;15.20;96.00
17697;DHT22;8967;47.984;7.842;2023-02-18T12:24:09;15.20;96.10
17697;DHT22;8967;47.984;7.842;2023-02-18T12:26:46;15.20;96.30
17697;DHT22;8967;47.984;7.842;2023-02-18T12:29:37;15.20;96.30
17697;DHT22;8967;47.984;7.842;2023-02-18T12:32:14;15.10;96.30
17697;DHT22;8967;47.984;7.842;2023-02-18T12:35:02;15.20;96.30
17697;DHT22;8967;47.984;7.842;2023-02-18T12:38:02;15.20;96.30
17697;DHT22;8967;47.984;7.842;2023-02-18T12:40:43;15.10;96.30
17697;DHT22;8967;47.984;7.842;2023-02-18T12:43:25;15.10;96.50
17697;DHT22;8967;47.984;7.842;2023-02-18T12:46:08;15.20;96.40
17697;DHT22;8967;47.984;7.842;2023-02-18T12:48:49;15.20;96.50
17697;DHT22;8967;47.984;7.842;2023-02-18T12:51:25;15.20;96.30
17697;DHT22;8967;47.984;7.842;2023-02-18T12:57:17;15.20;96.00
17697;DHT22;8967;47.984;7.842;2023-02-18T13:00:08;15.20;96.00
17697;DHT22;8967;47.984;7.842;2023-02-18T13:02:54;15.20;96.00
17697;DHT22;8967;47.984;7.842;2023-02-18T13:05:30;15.20;95.90
17697;DHT22;8967;47.984;7.842;2023-02-18T13:08:11;15.30;95.80
17697;DHT22;8967;47.984;7.842;2023-02-18T13:10:59;15.30;95.80
17697;DHT22;8967;47.984;7.842;2023-02-18T13:13:31;15.30;95.40
17697;DHT22;8967;47.984;7.842;2023-02-18T13:16:04;15.30;95.40
17697;DHT22;8967;47.984;7.842;2023-02-18T13:18:36;15.30;95.40
17697;DHT22;8967;47.984;7.842;2023-02-18T13:21:05;15.30;95.40
17697;DHT22;8967;47.984;7.842;2023-02-18T13:23:34;15.30;95.30
17697;DHT22;8967;47.984;7.842;2023-02-18T13:26:08;15.30;95.30
17697;DHT22;8967;47.984;7.842;2023-02-18T13:28:41;15.20;95.30
17697;DHT22;8967;47.984;7.842;2023-02-18T13:31:18;15.20;95.30
17697;DHT22;8967;47.984;7.842;2023-02-18T13:33:55;15.20;95.20
17697;DHT22;8967;47.984;7.842;2023-02-18T13:36:53;15.20;94.90
17697;DHT22;8967;47.984;7.842;2023-02-18T13:39:25;15.20;94.80
17697;DHT22;8967;47.984;7.842;2023-02-18T13:42:10;15.20;94.60
17697;DHT22;8967;47.984;7.842;2023-02-18T13:45:15;15.20;94.70
17697;DHT22;8967;47.984;7.842;2023-02-18T13:47:48;15.10;94.70
17697;DHT22;8967;47.984;7.842;2023-02-18T13:50:24;15.20;94.70
17697;DHT22;8967;47.984;7.842;2023-02-18T13:53:19;15.20;94.70
17697;DHT22;8967;47.984;7.842;2023-02-18T13:55:57;15.20;94.50
17697;DHT22;8967;47.984;7.842;2023-02-18T13:58:30;15.20;94.60
17697;DHT22;8967;47.984;7.842;2023-02-18T14:01:01;15.20;94.60
17697;DHT22;8967;47.984;7.842;2023-02-18T14:03:50;15.10;94.50
17697;DHT22;8967;47.984;7.842;2023-02-18T14:06:20;15.10;94.50
17697;DHT22;8967;47.984;7.842;2023-02-18T14:08:48;15.20;94.40
17697;DHT22;8967;47.984;7.842;2023-02-18T14:11:39;15.20;94.10
17697;DHT22;8967;47.984;7.842;2023-02-18T14:17:27;15.20;94.30
17697;DHT22;8967;47.984;7.842;2023-02-18T14:20:00;15.20;94.30
17697;DHT22;8967;47.984;7.842;2023-02-18T14:22:50;15.20;94.30
17697;DHT22;8967;47.984;7.842;2023-02-18T14:25:23;15.20;94.10
17697;DHT22;8967;47.984;7.842;2023-02-18T14:27:53;15.20;94.00
17697;DHT22;8967;47.984;7.842;2023-02-18T14:30:25;15.20;94.00
17697;DHT22;8967;47.984;7.842;2023-02-18T14:32:57;15.20;94.10
17697;DHT22;8967;47.984;7.842;2023-02-18T14:35:29;15.20;94.10
17697;DHT22;8967;47.984;7.842;2023-02-18T14:38:13;15.20;94.00
17697;DHT22;8967;47.984;7.842;2023-02-18T14:41:07;15.20;93.70
17697;DHT22;8967;47.984;7.842;2023-02-18T14:43:47;15.20;93.50
17697;DHT22;8967;47.984;7.842;2023-02-18T14:46:31;15.20;93.60
17697;DHT22;8967;47.984;7.842;2023-02-18T14:49:25;15.10;93.50
17697;DHT22;8967;47.984;7.842;2023-02-18T14:51:56;15.10;93.50
17697;DHT22;8967;47.984;7.842;2023-02-18T14:54:27;15.10;93.60
17697;DHT22;8967;47.984;7.842;2023-02-18T14:56:57;15.10;93.70
17697;DHT22;8967;47.984;7.842;2023-02-18T14:59:27;15.10;93.70
17697;DHT22;8967;47.984;7.842;2023-02-18T15:01:55;15.10;93.60
17697;DHT22;8967;47.984;7.842;2023-02-18T15:04:23;15.00;93.60
17697;DHT22;8967;47.984;7.842;2023-02-18T15:07:00;15.00;93.60
17697;DHT22;8967;47.984;7.842;2023-02-18T15:09:28;15.00;93.70
17697;DHT22;8967;47.984;7.842;2023-02-18T15:11:57;15.00;93.70
17697;DHT22;8967;47.984;7.842;2023-02-18T15:14:28;15.00;93.40
17697;DHT22;8967;47.984;7.842;2023-02-18T15:16:56;15.00;93.70
17697;DHT22;8967;47.984;7.842;2023-02-18T15:19:41;15.00;93.30
17697;DHT22;8967;47.984;7.842;2023-02-18T15:22:16;14.90;93.20
17697;DHT22;8967;47.984;7.842;2023-02-18T15:24:48;14.90;93.30
17697;DHT22;8967;47.984;7.842;2023-02-18T15:27:17;14.90;93.20
17697;DHT22;8967;47.984;7.842;2023-02-18T15:29:49;14.90;93.20
17697;DHT22;8967;47.984;7.842;2023-02-18T15:32:19;14.90;93.30
17697;DHT22;8967;47.984;7.842;2023-02-18T15:34:49;14.80;93.30
17697;DHT22;8967;47.984;7.842;2023-02-18T15:37:17;14.90;93.10
17697;DHT22;8967;47.984;7.842;2023-02-18T15:39:46;14.80;93.00
17697;DHT22;8967;47.984;7.842;2023-02-18T15:42:18;14.90;92.90
17697;DHT22;8967;47.984;7.842;2023-02-18T15:44:50;14.80;93.00
17697;DHT22;8967;47.984;7.842;2023-02-18T15:47:19;14.80;93.10
17697;DHT22;8967;47.984;7.842;2023-02-18T15:49:50;14.80;93.10
17697;DHT22;8967;47.984;7.842;2023-02-18T15:52:23;14.80;93.10
17697;DHT22;8967;47.984;7.842;2023-02-18T15:54:52;14.80;93.20
17697;DHT22;8967;47.984;7.842;2023-02-18T15:57:25;14.70;93.10
17697;DHT22;8967;47.984;7.842;2023-02-18T15:59:56;14.70;93.10
17697;DHT22;8967;47.984;7.842;2023-02-18T16:02:31;14.70;93.10
17697;DHT22;8967;47.984;7.842;2023-02-18T16:05:00;14.70;93.10
17697;DHT22;8967;47.984;7.842;2023-02-18T16:07:31;14.60;93.10
17697;DHT22;8967;47.984;7.842;2023-02-18T16:10:24;14.60;93.20
17697;DHT22;8967;47.984;7.842;2023-02-18T16:13:00;14.60;93.20
17697;DHT22;8967;47.984;7.842;2023-02-18T16:15:29;14.50;93.20
17697;DHT22;8967;47.984;7.842;2023-02-18T16:17:56;14.50;93.20
17697;DHT22;8967;47.984;7.842;2023-02-18T16:20:30;14.50;93.40
17697;DHT22;8967;47.984;7.842;2023-02-18T16:23:00;14.50;93.50
17697;DHT22;8967;47.984;7.842;2023-02-18T16:25:41;14.50;93.60
17697;DHT22;8967;47.984;7.842;2023-02-18T16:28:13;14.40;93.60
17697;DHT22;8967;47.984;7.842;2023-02-18T16:30:41;14.40;93.50
17697;DHT22;8967;47.984;7.842;2023-02-18T16:33:11;14.40;93.50